sensor_id;sensor_type;location;lat;lon;timestamp;pressure;altitude;pressure_sealevel;temperature;humidity
25722;BME280;13578;53.450;15.496;2023-02-12T00:02:10;101237.41;;;3.85;100.00
25722;BME280;13578;53.450;15.496;2023-02-12T00:05:11;101246.41;;;3.86;100.00
25722;BME280;13578;53.450;15.496;2023-02-12T00:08:12;101256.06;;;3.71;100.00
25722;BME280;13578;53.450;15.496;2023-02-12T00:11:15;101266.69;;;3.77;100.00
25722;BME280;13578;53.450;15.496;2023-02-12T00:14:17;101256.75;;;3.76;100.00
25722;BME280;13578;53.450;15.496;2023-02-12T00:17:17;101264.88;;;3.77;100.00
25722;BME280;13578;53.450;15.496;2023-02-12T00:20:18;101258.31;;;3.59;100.00
25722;BME280;13578;53.450;15.496;2023-02-12T00:23:19;101261.13;;;3.56;100.00
25722;BME280;13578;53.450;15.496;2023-02-12T00:26:20;101259.34;;;3.55;100.00
25722;BME280;13578;53.450;15.496;2023-02-12T00:29:21;101262.97;;;3.56;100.00
25722;BME280;13578;53.450;15.496;2023-02-12T00:32:22;101262.78;;;3.60;100.00
25722;BME280;13578;53.450;15.496;2023-02-12T00:35:22;101268.28;;;3.59;100.00
25722;BME280;13578;53.450;15.496;2023-02-12T00:38:23;101274.59;;;3.59;100.00
25722;BME280;13578;53.450;15.496;2023-02-12T00:41:24;101262.97;;;3.56;100.00
25722;BME280;13578;53.450;15.496;2023-02-12T00:44:25;101273.06;;;3.52;100.00
25722;BME280;13578;53.450;15.496;2023-02-12T00:47:26;101269.75;;;3.44;100.00
25722;BME280;13578;53.450;15.496;2023-02-12T00:50:26;101277.59;;;3.52;100.00
25722;BME280;13578;53.450;15.496;2023-02-12T00:53:28;101286.41;;;3.58;100.00
25722;BME280;13578;53.450;15.496;2023-02-12T00:56:28;101282.84;;;3.56;100.00
25722;BME280;13578;53.450;15.496;2023-02-12T00:59:29;101284.03;;;3.49;100.00
25722;BME280;13578;53.450;15.496;2023-02-12T01:02:30;101291.69;;;3.38;100.00
25722;BME280;13578;53.450;15.496;2023-02-12T01:05:31;101290.13;;;3.30;100.00
25722;BME280;13578;53.450;15.496;2023-02-12T01:08:32;101291.88;;;3.31;100.00
25722;BME280;13578;53.450;15.496;2023-02-12T01:11:33;101296.34;;;3.34;100.00
25722;BME280;13578;53.450;15.496;2023-02-12T01:14:33;101297.06;;;3.39;100.00
25722;BME280;13578;53.450;15.496;2023-02-12T01:17:34;101307.28;;;3.31;100.00
25722;BME280;13578;53.450;15.496;2023-02-12T01:20:35;101315.28;;;3.36;100.00
25722;BME280;13578;53.450;15.496;2023-02-12T01:23:36;101323.63;;;3.29;100.00
25722;BME280;13578;53.450;15.496;2023-02-12T01:26:36;101332.59;;;3.31;100.00
25722;BME280;13578;53.450;15.496;2023-02-12T01:29:37;101326.44;;;3.26;100.00
25722;BME280;13578;53.450;15.496;2023-02-12T01:32:39;101331.81;;;3.28;100.00
25722;BME280;13578;53.450;15.496;2023-02-12T01:35:39;101324.03;;;3.17;100.00
25722;BME280;13578;53.450;15.496;2023-02-12T01:38:40;101324.16;;;3.14;100.00
25722;BME280;13578;53.450;15.496;2023-02-12T01:41:43;101326.03;;;3.12;100.00
25722;BME280;13578;53.450;15.496;2023-02-12T01:48:16;101335.91;;;3.14;100.00
25722;BME280;13578;53.450;15.496;2023-02-12T01:51:19;101345.25;;;3.06;100.00
25722;BME280;13578;53.450;15.496;2023-02-12T01:54:21;101350.69;;;3.06;100.00
25722;BME280;13578;53.450;15.496;2023-02-12T01:57:28;101353.38;;;3.06;100.00
25722;BME280;13578;53.450;15.496;2023-02-12T02:00:30;101355.25;;;3.04;100.00
25722;BME280;13578;53.450;15.496;2023-02-12T02:03:35;101350.91;;;2.99;100.00
25722;BME280;13578;53.450;15.496;2023-02-12T02:07:05;101342.75;;;2.99;100.00
25722;BME280;13578;53.450;15.496;2023-02-12T02:10:08;101341.19;;;2.92;100.00
25722;BME280;13578;53.450;15.496;2023-02-12T02:13:09;101345.03;;;2.85;100.00
25722;BME280;13578;53.450;15.496;2023-02-12T02:16:29;101343.06;;;2.90;100.00
25722;BME280;13578;53.450;15.496;2023-02-12T02:27:26;101341.53;;;2.81;100.00
25722;BME280;13578;53.450;15.496;2023-02-12T02:30:49;101338.06;;;2.78;100.00
25722;BME280;13578;53.450;15.496;2023-02-12T02:40:41;101349.25;;;2.67;100.00
25722;BME280;13578;53.450;15.496;2023-02-12T02:43:48;101353.88;;;2.63;100.00
25722;BME280;13578;53.450;15.496;2023-02-12T02:46:51;101350.25;;;2.64;100.00
25722;BME280;13578;53.450;15.496;2023-02-12T02:50:01;101360.03;;;2.68;100.00
25722;BME280;13578;53.450;15.496;2023-02-12T02:53:06;101353.91;;;2.62;100.00
25722;BME280;13578;53.450;15.496;2023-02-12T02:56:13;101359.31;;;2.63;100.00
25722;BME280;13578;53.450;15.496;2023-02-12T02:59:17;101360.13;;;2.65;100.00
25722;BME280;13578;53.450;15.496;2023-02-12T03:02:31;101369.50;;;2.55;100.00
25722;BME280;13578;53.450;15.496;2023-02-12T03:05:36;101377.72;;;2.52;100.00
25722;BME280;13578;53.450;15.496;2023-02-12T03:08:49;101375.72;;;2.59;100.00
25722;BME280;13578;53.450;15.496;2023-02-12T03:11:54;101377.66;;;2.53;100.00
25722;BME280;13578;53.450;15.496;2023-02-12T03:15:02;101377.78;;;2.50;100.00
25722;BME280;13578;53.450;15.496;2023-02-12T03:18:11;101384.00;;;2.54;100.00
25722;BME280;13578;53.450;15.496;2023-02-12T03:21:21;101384.03;;;2.52;100.00
25722;BME280;13578;53.450;15.496;2023-02-12T03:24:39;101377.25;;;2.37;100.00
25722;BME280;13578;53.450;15.496;2023-02-12T03:27:45;101384.59;;;2.34;100.00
25722;BME280;13578;53.450;15.496;2023-02-12T03:31:02;101388.28;;;2.31;100.00
25722;BME280;13578;53.450;15.496;2023-02-12T03:34:32;101398.81;;;2.42;100.00
25722;BME280;13578;53.450;15.496;2023-02-12T03:37:37;101398.66;;;2.47;100.00
25722;BME280;13578;53.450;15.496;2023-02-12T03:40:45;101396.09;;;2.42;100.00
25722;BME280;13578;53.450;15.496;2023-02-12T03:43:56;101399.84;;;2.38;100.00
25722;BME280;13578;53.450;15.496;2023-02-12T03:47:04;101403.50;;;2.35;100.00
25722;BME280;13578;53.450;15.496;2023-02-12T03:50:16;101410.84;;;2.32;100.00
25722;BME280;13578;53.450;15.496;2023-02-12T03:53:18;101408.19;;;2.30;100.00
25722;BME280;13578;53.450;15.496;2023-02-12T03:56:24;101409.88;;;2.34;100.00
25722;BME280;13578;53.450;15.496;2023-02-12T03:59:27;101406.13;;;2.38;100.00
25722;BME280;13578;53.450;15.496;2023-02-12T04:02:28;101406.78;;;2.47;100.00
25722;BME280;13578;53.450;15.496;2023-02-12T04:05:29;101408.53;;;2.49;100.00
25722;BME280;13578;53.450;15.496;2023-02-12T04:08:31;101411.38;;;2.45;100.00
25722;BME280;13578;53.450;15.496;2023-02-12T04:14:53;101414.31;;;2.37;100.00
25722;BME280;13578;53.450;15.496;2023-02-12T04:17:56;101421.69;;;2.32;100.00
25722;BME280;13578;53.450;15.496;2023-02-12T04:21:29;101427.88;;;2.37;100.00
25722;BME280;13578;53.450;15.496;2023-02-12T04:25:10;101428.53;;;2.45;100.00
25722;BME280;13578;53.450;15.496;2023-02-12T04:31:38;101435.09;;;2.36;100.00
25722;BME280;13578;53.450;15.496;2023-02-12T04:34:51;101440.53;;;2.36;100.00
25722;BME280;13578;53.450;15.496;2023-02-12T04:41:18;101447.63;;;2.41;100.00
25722;BME280;13578;53.450;15.496;2023-02-12T04:44:25;101445.25;;;2.30;100.00
25722;BME280;13578;53.450;15.496;2023-02-12T04:47:26;101453.31;;;2.31;100.00
25722;BME280;13578;53.450;15.496;2023-02-12T04:50:42;101447.91;;;2.31;100.00
25722;BME280;13578;53.450;15.496;2023-02-12T04:53:42;101445.91;;;2.38;100.00
25722;BME280;13578;53.450;15.496;2023-02-12T04:56:44;101456.84;;;2.35;100.00
25722;BME280;13578;53.450;15.496;2023-02-12T04:59:45;101462.31;;;2.33;100.00
25722;BME280;13578;53.450;15.496;2023-02-12T05:02:45;101465.03;;;2.32;100.00
25722;BME280;13578;53.450;15.496;2023-02-12T05:05:46;101464.28;;;2.27;100.00
25722;BME280;13578;53.450;15.496;2023-02-12T05:08:47;101470.78;;;2.21;100.00
25722;BME280;13578;53.450;15.496;2023-02-12T05:11:47;101469.03;;;2.20;100.00
25722;BME280;13578;53.450;15.496;2023-02-12T05:14:48;101473.34;;;2.27;100.00
25722;BME280;13578;53.450;15.496;2023-02-12T05:17:49;101472.97;;;2.40;100.00
25722;BME280;13578;53.450;15.496;2023-02-12T05:20:57;101470.94;;;2.46;100.00
25722;BME280;13578;53.450;15.496;2023-02-12T05:23:59;101475.72;;;2.38;100.00
25722;BME280;13578;53.450;15.496;2023-02-12T05:27:00;101469.34;;;2.39;100.00
25722;BME280;13578;53.450;15.496;2023-02-12T05:30:01;101473.09;;;2.35;100.00
25722;BME280;13578;53.450;15.496;2023-02-12T05:33:02;101472.97;;;2.40;100.00
25722;BME280;13578;53.450;15.496;2023-02-12T05:36:07;101473.81;;;2.42;100.00
25722;BME280;13578;53.450;15.496;2023-02-12T05:39:09;101480.84;;;2.47;100.00
25722;BME280;13578;53.450;15.496;2023-02-12T05:42:10;101483.13;;;2.31;100.00
25722;BME280;13578;53.450;15.496;2023-02-12T05:45:11;101480.28;;;2.36;100.00
25722;BME280;13578;53.450;15.496;2023-02-12T05:48:11;101483.88;;;2.36;100.00
25722;BME280;13578;53.450;15.496;2023-02-12T05:51:14;101479.69;;;2.26;100.00
25722;BME280;13578;53.450;15.496;2023-02-12T05:54:15;101478.63;;;2.30;100.00
25722;BME280;13578;53.450;15.496;2023-02-12T05:57:16;101482.47;;;2.23;100.00
25722;BME280;13578;53.450;15.496;2023-02-12T06:00:17;101480.09;;;2.11;100.00
25722;BME280;13578;53.450;15.496;2023-02-12T06:03:18;101482.81;;;2.11;100.00
25722;BME280;13578;53.450;15.496;2023-02-12T06:06:19;101481.72;;;2.18;100.00
25722;BME280;13578;53.450;15.496;2023-02-12T06:09:20;101482.63;;;2.17;100.00
25722;BME280;13578;53.450;15.496;2023-02-12T06:12:20;101487.19;;;2.15;100.00
25722;BME280;13578;53.450;15.496;2023-02-12T06:15:21;101481.84;;;2.13;100.00
25722;BME280;13578;53.450;15.496;2023-02-12T06:18:22;101495.25;;;2.18;100.00
25722;BME280;13578;53.450;15.496;2023-02-12T06:21:26;101501.66;;;2.15;100.00
25722;BME280;13578;53.450;15.496;2023-02-12T06:24:26;101497.03;;;2.19;100.00
25722;BME280;13578;53.450;15.496;2023-02-12T06:27:27;101508.13;;;2.10;100.00
25722;BME280;13578;53.450;15.496;2023-02-12T06:30:28;101500.81;;;2.13;100.00
25722;BME280;13578;53.450;15.496;2023-02-12T06:33:29;101513.31;;;2.17;100.00
25722;BME280;13578;53.450;15.496;2023-02-12T06:36:30;101515.06;;;2.20;100.00
25722;BME280;13578;53.450;15.496;2023-02-12T06:39:31;101514.28;;;2.16;100.00
25722;BME280;13578;53.450;15.496;2023-02-12T06:42:32;101523.28;;;2.17;100.00
25722;BME280;13578;53.450;15.496;2023-02-12T06:45:32;101522.34;;;2.18;100.00
25722;BME280;13578;53.450;15.496;2023-02-12T06:48:34;101521.44;;;2.17;100.00
25722;BME280;13578;53.450;15.496;2023-02-12T06:51:34;101533.13;;;2.19;100.00
25722;BME280;13578;53.450;15.496;2023-02-12T06:54:37;101527.72;;;2.19;100.00
25722;BME280;13578;53.450;15.496;2023-02-12T06:57:38;101531.22;;;2.23;100.00
25722;BME280;13578;53.450;15.496;2023-02-12T07:00:38;101533.81;;;2.28;100.00
25722;BME280;13578;53.450;15.496;2023-02-12T07:03:59;101531.97;;;2.28;100.00
25722;BME280;13578;53.450;15.496;2023-02-12T07:07:01;101531.97;;;2.30;100.00
25722;BME280;13578;53.450;15.496;2023-02-12T07:10:01;101548.03;;;2.36;100.00
25722;BME280;13578;53.450;15.496;2023-02-12T07:13:03;101549.03;;;2.33;100.00
25722;BME280;13578;53.450;15.496;2023-02-12T07:16:06;101551.31;;;2.49;100.00
25722;BME280;13578;53.450;15.496;2023-02-12T07:19:06;101554.25;;;2.40;100.00
25722;BME280;13578;53.450;15.496;2023-02-12T07:22:07;101559.69;;;2.40;100.00
25722;BME280;13578;53.450;15.496;2023-02-12T07:25:08;101568.56;;;2.45;100.00
25722;BME280;13578;53.450;15.496;2023-02-12T07:28:09;101560.38;;;2.46;100.00
25722;BME280;13578;53.450;15.496;2023-02-12T07:31:14;101565.97;;;2.40;100.00
25722;BME280;13578;53.450;15.496;2023-02-12T07:34:15;101561.53;;;2.37;100.00
25722;BME280;13578;53.450;15.496;2023-02-12T07:37:16;101571.31;;;2.43;100.00
25722;BME280;13578;53.450;15.496;2023-02-12T07:40:21;101567.88;;;2.36;100.00
25722;BME280;13578;53.450;15.496;2023-02-12T07:43:22;101568.50;;;2.48;100.00
25722;BME280;13578;53.450;15.496;2023-02-12T07:46:28;101568.25;;;2.56;100.00
25722;BME280;13578;53.450;15.496;2023-02-12T07:49:29;101565.81;;;2.46;100.00
25722;BME280;13578;53.450;15.496;2023-02-12T07:52:29;101562.16;;;2.49;100.00
25722;BME280;13578;53.450;15.496;2023-02-12T07:55:30;101570.09;;;2.55;100.00
25722;BME280;13578;53.450;15.496;2023-02-12T07:58:30;101563.59;;;2.61;100.00
25722;BME280;13578;53.450;15.496;2023-02-12T08:01:35;101561.78;;;2.61;100.00
25722;BME280;13578;53.450;15.496;2023-02-12T08:04:36;101568.94;;;2.64;100.00
25722;BME280;13578;53.450;15.496;2023-02-12T08:07:37;101572.44;;;2.67;100.00
25722;BME280;13578;53.450;15.496;2023-02-12T08:10:38;101575.75;;;2.79;100.00
25722;BME280;13578;53.450;15.496;2023-02-12T08:13:39;101569.09;;;2.89;100.00
25722;BME280;13578;53.450;15.496;2023-02-12T08:16:41;101581.47;;;2.99;100.00
25722;BME280;13578;53.450;15.496;2023-02-12T08:19:42;101582.94;;;3.11;100.00
25722;BME280;13578;53.450;15.496;2023-02-12T08:22:42;101584.50;;;3.18;100.00
25722;BME280;13578;53.450;15.496;2023-02-12T08:25:43;101588.84;;;3.24;100.00
25722;BME280;13578;53.450;15.496;2023-02-12T08:28:50;101581.69;;;3.22;100.00
25722;BME280;13578;53.450;15.496;2023-02-12T08:32:01;101587.78;;;3.30;100.00
25722;BME280;13578;53.450;15.496;2023-02-12T08:35:02;101583.38;;;3.26;100.00
25722;BME280;13578;53.450;15.496;2023-02-12T08:38:03;101586.00;;;3.29;100.00
25722;BME280;13578;53.450;15.496;2023-02-12T08:41:05;101598.88;;;3.22;100.00
25722;BME280;13578;53.450;15.496;2023-02-12T08:44:07;101608.50;;;3.32;100.00
25722;BME280;13578;53.450;15.496;2023-02-12T08:47:07;101598.09;;;3.47;100.00
25722;BME280;13578;53.450;15.496;2023-02-12T08:50:09;101605.50;;;3.42;100.00
25722;BME280;13578;53.450;15.496;2023-02-12T08:53:10;101610.06;;;3.40;100.00
25722;BME280;13578;53.450;15.496;2023-02-12T08:56:12;101613.38;;;3.49;100.00
25722;BME280;13578;53.450;15.496;2023-02-12T08:59:14;101611.53;;;3.52;100.00
25722;BME280;13578;53.450;15.496;2023-02-12T09:02:14;101609.38;;;3.63;100.00
25722;BME280;13578;53.450;15.496;2023-02-12T09:05:15;101617.53;;;3.61;100.00
25722;BME280;13578;53.450;15.496;2023-02-12T09:08:16;101618.66;;;3.56;100.00
25722;BME280;13578;53.450;15.496;2023-02-12T09:11:19;101622.09;;;3.61;100.00
25722;BME280;13578;53.450;15.496;2023-02-12T09:14:23;101614.59;;;3.69;100.00
25722;BME280;13578;53.450;15.496;2023-02-12T09:17:24;101613.66;;;3.70;100.00
25722;BME280;13578;53.450;15.496;2023-02-12T09:20:26;101624.31;;;3.76;100.00
25722;BME280;13578;53.450;15.496;2023-02-12T09:23:27;101619.53;;;3.85;100.00
25722;BME280;13578;53.450;15.496;2023-02-12T09:26:28;101616.75;;;3.86;100.00
25722;BME280;13578;53.450;15.496;2023-02-12T09:29:28;101620.09;;;3.94;100.00
25722;BME280;13578;53.450;15.496;2023-02-12T09:32:29;101624.59;;;3.95;100.00
25722;BME280;13578;53.450;15.496;2023-02-12T09:35:33;101620.19;;;3.91;100.00
25722;BME280;13578;53.450;15.496;2023-02-12T09:38:34;101623.69;;;3.95;100.00
25722;BME280;13578;53.450;15.496;2023-02-12T09:51:32;101615.25;;;4.04;100.00
25722;BME280;13578;53.450;15.496;2023-02-12T09:54:39;101619.69;;;4.07;100.00
25722;BME280;13578;53.450;15.496;2023-02-12T09:57:40;101626.91;;;4.08;100.00
25722;BME280;13578;53.450;15.496;2023-02-12T10:00:42;101626.03;;;4.07;100.00
25722;BME280;13578;53.450;15.496;2023-02-12T10:03:49;101623.31;;;4.07;100.00
25722;BME280;13578;53.450;15.496;2023-02-12T10:07:04;101619.59;;;4.10;100.00
25722;BME280;13578;53.450;15.496;2023-02-12T10:10:30;101615.81;;;4.14;100.00
25722;BME280;13578;53.450;15.496;2023-02-12T10:13:52;101609.38;;;4.17;100.00
25722;BME280;13578;53.450;15.496;2023-02-12T10:26:53;101624.59;;;4.22;100.00
25722;BME280;13578;53.450;15.496;2023-02-12T10:29:56;101607.19;;;4.28;100.00
25722;BME280;13578;53.450;15.496;2023-02-12T10:33:03;101610.56;;;4.35;100.00
25722;BME280;13578;53.450;15.496;2023-02-12T10:36:51;101613.06;;;4.41;100.00
25722;BME280;13578;53.450;15.496;2023-02-12T10:39:33;101618.41;;;4.44;100.00
25722;BME280;13578;53.450;15.496;2023-02-12T10:42:36;101608.25;;;4.49;100.00
25722;BME280;13578;53.450;15.496;2023-02-12T10:45:40;101605.28;;;4.55;100.00
25722;BME280;13578;53.450;15.496;2023-02-12T10:48:44;101605.44;;;4.52;100.00
25722;BME280;13578;53.450;15.496;2023-02-12T10:51:57;101600.59;;;4.60;100.00
25722;BME280;13578;53.450;15.496;2023-02-12T10:55:00;101589.94;;;4.54;100.00
25722;BME280;13578;53.450;15.496;2023-02-12T10:58:03;101598.13;;;4.54;100.00
25722;BME280;13578;53.450;15.496;2023-02-12T11:01:06;101592.69;;;4.53;100.00
25722;BME280;13578;53.450;15.496;2023-02-12T11:04:27;101585.31;;;4.56;100.00
25722;BME280;13578;53.450;15.496;2023-02-12T11:07:46;101583.03;;;4.69;100.00
25722;BME280;13578;53.450;15.496;2023-02-12T11:10:47;101585.69;;;4.71;100.00
25722;BME280;13578;53.450;15.496;2023-02-12T11:14:04;101577.53;;;4.71;100.00
25722;BME280;13578;53.450;15.496;2023-02-12T11:17:05;101576.66;;;4.70;100.00
25722;BME280;13578;53.450;15.496;2023-02-12T11:20:19;101571.00;;;4.76;100.00
25722;BME280;13578;53.450;15.496;2023-02-12T11:23:30;101569.94;;;4.81;100.00
25722;BME280;13578;53.450;15.496;2023-02-12T11:26:31;101571.41;;;4.89;100.00
25722;BME280;13578;53.450;15.496;2023-02-12T11:29:32;101567.25;;;4.79;100.00
25722;BME280;13578;53.450;15.496;2023-02-12T11:32:33;101565.69;;;4.73;100.00
25722;BME280;13578;53.450;15.496;2023-02-12T11:35:34;101569.19;;;4.77;100.00
25722;BME280;13578;53.450;15.496;2023-02-12T11:38:38;101561.97;;;4.76;100.00
25722;BME280;13578;53.450;15.496;2023-02-12T11:41:51;101562.91;;;4.75;100.00
25722;BME280;13578;53.450;15.496;2023-02-12T11:44:57;101557.28;;;4.80;100.00
25722;BME280;13578;53.450;15.496;2023-02-12T11:47:58;101561.97;;;4.76;100.00
25722;BME280;13578;53.450;15.496;2023-02-12T11:51:02;101566.56;;;4.74;100.00
25722;BME280;13578;53.450;15.496;2023-02-12T11:54:04;101559.06;;;4.81;100.00
25722;BME280;13578;53.450;15.496;2023-02-12T11:57:05;101559.22;;;4.76;100.00
25722;BME280;13578;53.450;15.496;2023-02-12T12:00:28;101556.03;;;4.88;100.00
25722;BME280;13578;53.450;15.496;2023-02-12T12:06:54;101569.53;;;4.91;100.00
25722;BME280;13578;53.450;15.496;2023-02-12T12:10:03;101574.97;;;4.91;100.00
25722;BME280;13578;53.450;15.496;2023-02-12T12:13:21;101577.56;;;4.95;100.00
25722;BME280;13578;53.450;15.496;2023-02-12T12:16:33;101568.63;;;4.91;100.00
25722;BME280;13578;53.450;15.496;2023-02-12T12:20:16;101565.75;;;4.96;100.00
25722;BME280;13578;53.450;15.496;2023-02-12T12:23:34;101571.28;;;4.92;100.00
25722;BME280;13578;53.450;15.496;2023-02-12T12:26:38;101568.22;;;5.02;100.00
25722;BME280;13578;53.450;15.496;2023-02-12T12:32:52;101567.72;;;5.14;100.00
25722;BME280;13578;53.450;15.496;2023-02-12T12:48:56;101547.03;;;5.10;100.00
25722;BME280;13578;53.450;15.496;2023-02-12T12:52:33;101549.16;;;5.02;100.00
25722;BME280;13578;53.450;15.496;2023-02-12T12:55:59;101543.38;;;5.11;100.00
25722;BME280;13578;53.450;15.496;2023-02-12T13:10:23;101540.75;;;5.08;100.00
25722;BME280;13578;53.450;15.496;2023-02-12T13:13:37;101534.44;;;5.07;100.00
25722;BME280;13578;53.450;15.496;2023-02-12T13:16:48;101530.38;;;5.18;100.00
25722;BME280;13578;53.450;15.496;2023-02-12T13:23:41;101532.25;;;5.17;100.00
25722;BME280;13578;53.450;15.496;2023-02-12T13:26:52;101525.25;;;5.10;100.00
25722;BME280;13578;53.450;15.496;2023-02-12T13:30:03;101526.22;;;5.09;100.00
25722;BME280;13578;53.450;15.496;2023-02-12T13:33:14;101524.19;;;5.14;100.00
25722;BME280;13578;53.450;15.496;2023-02-12T13:36:17;101521.47;;;5.14;100.00
25722;BME280;13578;53.450;15.496;2023-02-12T13:39:26;101526.78;;;5.17;100.00
25722;BME280;13578;53.450;15.496;2023-02-12T13:46:02;101509.63;;;5.15;100.00
25722;BME280;13578;53.450;15.496;2023-02-12T13:53:01;101508.28;;;5.03;100.00
25722;BME280;13578;53.450;15.496;2023-02-12T14:05:37;101510.38;;;5.19;100.00
25722;BME280;13578;53.450;15.496;2023-02-12T14:08:44;101516.78;;;5.18;100.00
25722;BME280;13578;53.450;15.496;2023-02-12T14:11:51;101520.97;;;5.27;100.00
25722;BME280;13578;53.450;15.496;2023-02-12T14:18:20;101518.19;;;5.28;100.00
25722;BME280;13578;53.450;15.496;2023-02-12T14:27:43;101528.34;;;5.47;100.00
25722;BME280;13578;53.450;15.496;2023-02-12T14:30:45;101529.34;;;5.44;100.00
25722;BME280;13578;53.450;15.496;2023-02-12T14:33:47;101532.63;;;5.52;100.00
25722;BME280;13578;53.450;15.496;2023-02-12T14:37:14;101534.84;;;5.43;100.00
25722;BME280;13578;53.450;15.496;2023-02-12T14:43:35;101533.03;;;5.43;100.00
25722;BME280;13578;53.450;15.496;2023-02-12T14:46:56;101523.88;;;5.44;100.00
25722;BME280;13578;53.450;15.496;2023-02-12T14:50:07;101532.06;;;5.44;100.00
25722;BME280;13578;53.450;15.496;2023-02-12T14:53:43;101532.06;;;5.44;100.00
25722;BME280;13578;53.450;15.496;2023-02-12T14:56:47;101532.06;;;5.44;100.00
25722;BME280;13578;53.450;15.496;2023-02-12T14:59:49;101545.56;;;5.47;100.00
25722;BME280;13578;53.450;15.496;2023-02-12T15:03:22;101535.78;;;5.41;100.00
25722;BME280;13578;53.450;15.496;2023-02-12T15:06:37;101533.78;;;5.47;100.00
25722;BME280;13578;53.450;15.496;2023-02-12T15:10:02;101537.50;;;5.44;100.00
25722;BME280;13578;53.450;15.496;2023-02-12T15:13:17;101543.09;;;5.41;100.00
25722;BME280;13578;53.450;15.496;2023-02-12T15:20:15;101547.72;;;5.39;100.00
25722;BME280;13578;53.450;15.496;2023-02-12T15:22:59;101551.25;;;5.41;100.00
25722;BME280;13578;53.450;15.496;2023-02-12T15:26:00;101541.44;;;5.37;100.00
25722;BME280;13578;53.450;15.496;2023-02-12T15:29:02;101546.75;;;5.40;100.00
25722;BME280;13578;53.450;15.496;2023-02-12T15:32:05;101551.56;;;5.33;100.00
25722;BME280;13578;53.450;15.496;2023-02-12T15:35:22;101553.81;;;5.46;100.00
25722;BME280;13578;53.450;15.496;2023-02-12T15:38:35;101560.25;;;5.43;100.00
25722;BME280;13578;53.450;15.496;2023-02-12T15:41:38;101554.06;;;5.39;100.00
25722;BME280;13578;53.450;15.496;2023-02-12T15:44:39;101560.00;;;5.49;100.00
25722;BME280;13578;53.450;15.496;2023-02-12T15:47:41;101551.38;;;5.38;100.00
25722;BME280;13578;53.450;15.496;2023-02-12T15:50:50;101558.31;;;5.47;100.00
25722;BME280;13578;53.450;15.496;2023-02-12T15:53:52;101558.59;;;5.39;100.00
25722;BME280;13578;53.450;15.496;2023-02-12T15:56:54;101562.25;;;5.38;100.00
25722;BME280;13578;53.450;15.496;2023-02-12T15:59:57;101562.00;;;5.44;100.00
25722;BME280;13578;53.450;15.496;2023-02-12T16:03:03;101553.03;;;5.42;100.00
25722;BME280;13578;53.450;15.496;2023-02-12T16:06:11;101568.22;;;5.48;100.00
25722;BME280;13578;53.450;15.496;2023-02-12T16:09:20;101568.72;;;5.35;100.00
25722;BME280;13578;53.450;15.496;2023-02-12T16:12:30;101563.94;;;5.42;100.00
25722;BME280;13578;53.450;15.496;2023-02-12T16:15:32;101567.84;;;5.35;100.00
25722;BME280;13578;53.450;15.496;2023-02-12T16:18:34;101562.50;;;5.32;100.00
25722;BME280;13578;53.450;15.496;2023-02-12T16:21:37;101559.69;;;5.35;100.00
25722;BME280;13578;53.450;15.496;2023-02-12T16:24:45;101560.31;;;5.41;100.00
25722;BME280;13578;53.450;15.496;2023-02-12T16:31:07;101576.66;;;5.41;100.00
25722;BME280;13578;53.450;15.496;2023-02-12T16:34:27;101575.78;;;5.41;100.00
25722;BME280;13578;53.450;15.496;2023-02-12T16:40:37;101579.13;;;5.48;100.00
25722;BME280;13578;53.450;15.496;2023-02-12T16:43:38;101572.13;;;5.40;100.00
25722;BME280;13578;53.450;15.496;2023-02-12T16:46:47;101582.22;;;5.38;100.00
25722;BME280;13578;53.450;15.496;2023-02-12T16:49:58;101580.38;;;5.39;100.00
25722;BME280;13578;53.450;15.496;2023-02-12T16:53:00;101588.38;;;5.44;100.00
25722;BME280;13578;53.450;15.496;2023-02-12T16:56:03;101578.84;;;5.32;100.00
25722;BME280;13578;53.450;15.496;2023-02-12T16:59:04;101588.63;;;5.37;100.00
25722;BME280;13578;53.450;15.496;2023-02-12T17:02:13;101581.06;;;5.44;100.00
25722;BME280;13578;53.450;15.496;2023-02-12T17:05:15;101590.56;;;5.34;100.00
25722;BME280;13578;53.450;15.496;2023-02-12T17:08:20;101585.97;;;5.36;100.00
25722;BME280;13578;53.450;15.496;2023-02-12T17:11:22;101585.13;;;5.34;100.00
25722;BME280;13578;53.450;15.496;2023-02-12T17:14:23;101588.03;;;5.29;100.00
25722;BME280;13578;53.450;15.496;2023-02-12T17:17:23;101580.75;;;5.30;100.00
25722;BME280;13578;53.450;15.496;2023-02-12T17:20:24;101591.78;;;5.27;100.00
25722;BME280;13578;53.450;15.496;2023-02-12T17:23:25;101587.72;;;5.37;100.00
25722;BME280;13578;53.450;15.496;2023-02-12T17:26:27;101586.94;;;5.33;100.00
25722;BME280;13578;53.450;15.496;2023-02-12T17:29:28;101593.47;;;5.29;100.00
25722;BME280;13578;53.450;15.496;2023-02-12T17:32:29;101593.31;;;5.34;100.00
25722;BME280;13578;53.450;15.496;2023-02-12T17:35:30;101595.44;;;5.25;100.00
25722;BME280;13578;53.450;15.496;2023-02-12T17:38:31;101595.09;;;5.35;100.00
25722;BME280;13578;53.450;15.496;2023-02-12T17:41:32;101602.25;;;5.37;100.00
25722;BME280;13578;53.450;15.496;2023-02-12T17:44:33;101602.34;;;5.34;100.00
25722;BME280;13578;53.450;15.496;2023-02-12T17:47:34;101603.94;;;5.40;100.00
25722;BME280;13578;53.450;15.496;2023-02-12T17:50:39;101598.81;;;5.32;100.00
25722;BME280;13578;53.450;15.496;2023-02-12T17:53:40;101594.50;;;5.27;100.00
25722;BME280;13578;53.450;15.496;2023-02-12T17:56:41;101597.47;;;5.20;100.00
25722;BME280;13578;53.450;15.496;2023-02-12T17:59:42;101590.34;;;5.16;100.00